sensor_id;sensor_type;location;lat;lon;timestamp;pressure;altitude;pressure_sealevel;temperature;humidity
76478;BME280;65309;49.790;18.972;2024-02-14T00:03:34;60116.97;;;-145.46;100.00
76478;BME280;65309;49.790;18.972;2024-02-14T00:08:36;60129.56;;;-145.46;100.00
76478;BME280;65309;49.790;18.972;2024-02-14T00:13:41;60089.63;;;-145.46;100.00
76478;BME280;65309;49.790;18.972;2024-02-14T00:18:43;60116.97;;;-145.46;100.00
76478;BME280;65309;49.790;18.972;2024-02-14T00:23:45;60154.81;;;-145.46;100.00
76478;BME280;65309;49.790;18.972;2024-02-14T00:28:49;60131.69;;;-145.46;100.00
76478;BME280;65309;49.790;18.972;2024-02-14T00:33:51;60119.06;;;-145.46;100.00
76478;BME280;65309;49.790;18.972;2024-02-14T00:38:53;60106.44;;;-145.46;100.00
76478;BME280;65309;49.790;18.972;2024-02-14T00:43:57;60121.16;;;-145.46;100.00
76478;BME280;65309;49.790;18.972;2024-02-14T00:48:59;60112.75;;;-145.46;100.00
76478;BME280;65309;49.790;18.972;2024-02-14T00:54:02;60116.97;;;-145.46;100.00
76478;BME280;65309;49.790;18.972;2024-02-14T00:59:06;60154.81;;;-145.46;100.00
76478;BME280;65309;49.790;18.972;2024-02-14T01:04:09;60108.56;;;-145.46;100.00
76478;BME280;65309;49.790;18.972;2024-02-14T01:09:11;60156.91;;;-145.46;100.00
76478;BME280;65309;49.790;18.972;2024-02-14T01:14:15;60169.50;;;-145.46;100.00
76478;BME280;65309;49.790;18.972;2024-02-14T01:19:17;60129.56;;;-145.46;100.00
76478;BME280;65309;49.790;18.972;2024-02-14T01:24:21;60121.16;;;-145.46;100.00
76478;BME280;65309;49.790;18.972;2024-02-14T01:29:25;60123.25;;;-145.46;100.00
76478;BME280;65309;49.790;18.972;2024-02-14T01:34:27;60125.38;;;-145.46;100.00
76478;BME280;65309;49.790;18.972;2024-02-14T01:39:30;60133.78;;;-145.46;100.00
76478;BME280;65309;49.790;18.972;2024-02-14T01:44:34;60074.91;;;-145.46;100.00
76478;BME280;65309;49.790;18.972;2024-02-14T01:49:38;60104.34;;;-145.46;100.00
76478;BME280;65309;49.790;18.972;2024-02-14T01:54:40;60137.97;;;-145.46;100.00
76478;BME280;65309;49.790;18.972;2024-02-14T01:59:44;60116.97;;;-145.46;100.00
76478;BME280;65309;49.790;18.972;2024-02-14T02:04:46;60089.63;;;-145.46;100.00
76478;BME280;65309;49.790;18.972;2024-02-14T02:09:50;60123.25;;;-145.46;100.00
76478;BME280;65309;49.790;18.972;2024-02-14T02:14:53;60146.38;;;-145.46;100.00
76478;BME280;65309;49.790;18.972;2024-02-14T02:19:56;60116.97;;;-145.46;100.00
76478;BME280;65309;49.790;18.972;2024-02-14T02:25:01;60106.44;;;-145.46;100.00
76478;BME280;65309;49.790;18.972;2024-02-14T02:30:04;60129.56;;;-145.46;100.00
76478;BME280;65309;49.790;18.972;2024-02-14T02:35:06;60102.25;;;-145.46;100.00
76478;BME280;65309;49.790;18.972;2024-02-14T02:40:11;60133.78;;;-145.46;100.00
76478;BME280;65309;49.790;18.972;2024-02-14T02:45:14;60154.81;;;-145.46;100.00
76478;BME280;65309;49.790;18.972;2024-02-14T02:50:17;60106.44;;;-145.46;100.00
76478;BME280;65309;49.790;18.972;2024-02-14T02:55:20;60116.97;;;-145.46;100.00
76478;BME280;65309;49.790;18.972;2024-02-14T03:00:22;60125.38;;;-145.46;100.00
76478;BME280;65309;49.790;18.972;2024-02-14T03:05:24;60112.75;;;-145.46;100.00
76478;BME280;65309;49.790;18.972;2024-02-14T03:10:28;60159.00;;;-145.46;100.00
76478;BME280;65309;49.790;18.972;2024-02-14T03:15:31;60087.53;;;-145.46;100.00
76478;BME280;65309;49.790;18.972;2024-02-14T03:20:34;60116.97;;;-145.46;100.00
76478;BME280;65309;49.790;18.972;2024-02-14T03:25:38;60114.84;;;-145.46;100.00
76478;BME280;65309;49.790;18.972;2024-02-14T03:30:40;60104.34;;;-145.46;100.00
76478;BME280;65309;49.790;18.972;2024-02-14T03:35:42;60079.13;;;-145.46;100.00
76478;BME280;65309;49.790;18.972;2024-02-14T03:40:46;60108.56;;;-145.46;100.00
76478;BME280;65309;49.790;18.972;2024-02-14T03:45:48;60104.34;;;-145.46;100.00
76478;BME280;65309;49.790;18.972;2024-02-14T03:50:51;60163.22;;;-145.46;100.00
76478;BME280;65309;49.790;18.972;2024-02-14T03:55:54;60121.16;;;-145.46;100.00
76478;BME280;65309;49.790;18.972;2024-02-14T04:00:57;60123.25;;;-145.46;100.00
76478;BME280;65309;49.790;18.972;2024-02-14T04:05:59;60129.56;;;-145.46;100.00
76478;BME280;65309;49.790;18.972;2024-02-14T04:11:03;60135.88;;;-145.46;100.00
76478;BME280;65309;49.790;18.972;2024-02-14T04:16:05;60100.13;;;-145.46;100.00
76478;BME280;65309;49.790;18.972;2024-02-14T04:21:07;60098.03;;;-145.46;100.00
76478;BME280;65309;49.790;18.972;2024-02-14T04:26:18;60108.56;;;-145.46;100.00
76478;BME280;65309;49.790;18.972;2024-02-14T04:31:21;60104.34;;;-145.46;100.00
76478;BME280;65309;49.790;18.972;2024-02-14T04:36:23;60116.97;;;-145.46;100.00
76478;BME280;65309;49.790;18.972;2024-02-14T04:41:27;60144.28;;;-145.46;100.00
76478;BME280;65309;49.790;18.972;2024-02-14T04:46:29;60144.28;;;-145.46;100.00
76478;BME280;65309;49.790;18.972;2024-02-14T04:51:31;60123.25;;;-145.46;100.00
76478;BME280;65309;49.790;18.972;2024-02-14T04:56:35;60137.97;;;-145.46;100.00
76478;BME280;65309;49.790;18.972;2024-02-14T05:01:37;60133.78;;;-145.46;100.00
76478;BME280;65309;49.790;18.972;2024-02-14T05:06:39;60121.16;;;-145.46;100.00
76478;BME280;65309;49.790;18.972;2024-02-14T05:11:43;60121.16;;;-145.46;100.00
76478;BME280;65309;49.790;18.972;2024-02-14T05:16:45;60142.19;;;-145.46;100.00
76478;BME280;65309;49.790;18.972;2024-02-14T05:21:48;60100.13;;;-145.46;100.00
76478;BME280;65309;49.790;18.972;2024-02-14T05:26:52;60146.38;;;-145.46;100.00
76478;BME280;65309;49.790;18.972;2024-02-14T05:31:54;60102.25;;;-145.46;100.00
76478;BME280;65309;49.790;18.972;2024-02-14T05:36:57;60112.75;;;-145.46;100.00
76478;BME280;65309;49.790;18.972;2024-02-14T05:42:00;60102.25;;;-145.46;100.00
76478;BME280;65309;49.790;18.972;2024-02-14T05:47:03;60108.56;;;-145.46;100.00
76478;BME280;65309;49.790;18.972;2024-02-14T05:52:06;60062.31;;;-145.46;100.00
76478;BME280;65309;49.790;18.972;2024-02-14T05:57:09;60142.19;;;-145.46;100.00
76478;BME280;65309;49.790;18.972;2024-02-14T06:02:11;60116.97;;;-145.46;100.00
76478;BME280;65309;49.790;18.972;2024-02-14T06:07:13;60123.25;;;-145.46;100.00
76478;BME280;65309;49.790;18.972;2024-02-14T06:12:17;60152.69;;;-145.46;100.00
76478;BME280;65309;49.790;18.972;2024-02-14T06:17:19;60142.19;;;-145.46;100.00
76478;BME280;65309;49.790;18.972;2024-02-14T06:22:21;60150.59;;;-145.46;100.00
76478;BME280;65309;49.790;18.972;2024-02-14T06:27:24;60116.97;;;-145.46;100.00
76478;BME280;65309;49.790;18.972;2024-02-14T06:32:26;60091.72;;;-145.46;100.00
76478;BME280;65309;49.790;18.972;2024-02-14T06:37:29;60116.97;;;-145.46;100.00
76478;BME280;65309;49.790;18.972;2024-02-14T06:42:38;60142.19;;;-145.46;100.00
76478;BME280;65309;49.790;18.972;2024-02-14T06:47:40;60133.78;;;-145.46;100.00
76478;BME280;65309;49.790;18.972;2024-02-14T06:52:42;60121.16;;;-145.46;100.00
76478;BME280;65309;49.790;18.972;2024-02-14T06:57:46;60119.06;;;-145.46;100.00
76478;BME280;65309;49.790;18.972;2024-02-14T07:02:48;60133.78;;;-145.46;100.00
76478;BME280;65309;49.790;18.972;2024-02-14T07:07:50;60125.38;;;-145.46;100.00
76478;BME280;65309;49.790;18.972;2024-02-14T07:12:54;60137.97;;;-145.46;100.00
76478;BME280;65309;49.790;18.972;2024-02-14T07:17:56;60131.69;;;-145.46;100.00
76478;BME280;65309;49.790;18.972;2024-02-14T07:23:00;60135.88;;;-145.46;100.00
76478;BME280;65309;49.790;18.972;2024-02-14T07:28:04;60127.47;;;-145.46;100.00
76478;BME280;65309;49.790;18.972;2024-02-14T07:33:06;60125.38;;;-145.46;100.00
76478;BME280;65309;49.790;18.972;2024-02-14T07:38:10;60154.81;;;-145.46;100.00
76478;BME280;65309;49.790;18.972;2024-02-14T07:43:13;60121.16;;;-145.46;100.00
76478;BME280;65309;49.790;18.972;2024-02-14T07:48:15;60121.16;;;-145.46;100.00
76478;BME280;65309;49.790;18.972;2024-02-14T07:53:18;60095.94;;;-145.46;100.00
76478;BME280;65309;49.790;18.972;2024-02-14T07:58:21;60133.78;;;-145.46;100.00
76478;BME280;65309;49.790;18.972;2024-02-14T08:03:23;60131.69;;;-145.46;100.00
76478;BME280;65309;49.790;18.972;2024-02-14T08:08:26;60089.63;;;-145.46;99.21
76478;BME280;65309;49.790;18.972;2024-02-14T08:13:32;60133.78;;;-145.46;97.20
76478;BME280;65309;49.790;18.972;2024-02-14T08:18:36;60112.75;;;-145.46;94.91
76478;BME280;65309;49.790;18.972;2024-02-14T08:23:39;60108.56;;;-145.46;93.35
76478;BME280;65309;49.790;18.972;2024-02-14T08:28:43;60119.06;;;-145.46;88.48
76478;BME280;65309;49.790;18.972;2024-02-14T08:33:45;60119.06;;;-145.46;82.73
76478;BME280;65309;49.790;18.972;2024-02-14T08:38:48;60091.72;;;-145.46;80.05
76478;BME280;65309;49.790;18.972;2024-02-14T08:43:51;60133.78;;;-145.46;78.44
76478;BME280;65309;49.790;18.972;2024-02-14T08:48:53;60077.00;;;-145.46;77.21
76478;BME280;65309;49.790;18.972;2024-02-14T08:53:56;60116.97;;;-145.46;78.08
76478;BME280;65309;49.790;18.972;2024-02-14T08:59:03;60062.31;;;-145.46;73.49
76478;BME280;65309;49.790;18.972;2024-02-14T09:04:06;60079.13;;;-145.46;72.17
76478;BME280;65309;49.790;18.972;2024-02-14T09:09:08;60089.63;;;-145.46;72.61
76478;BME280;65309;49.790;18.972;2024-02-14T09:14:13;60081.22;;;-145.46;73.01
76478;BME280;65309;49.790;18.972;2024-02-14T09:19:15;60093.84;;;-145.46;73.55
76478;BME280;65309;49.790;18.972;2024-02-14T09:24:18;60077.00;;;-145.46;73.69
76478;BME280;65309;49.790;18.972;2024-02-14T09:29:23;60068.59;;;-145.46;72.50
76478;BME280;65309;49.790;18.972;2024-02-14T09:34:25;60095.94;;;-145.46;71.93
76478;BME280;65309;49.790;18.972;2024-02-14T09:39:28;60131.69;;;-145.46;73.25
76478;BME280;65309;49.790;18.972;2024-02-14T09:44:31;60062.31;;;-145.46;71.59
76478;BME280;65309;49.790;18.972;2024-02-14T09:49:35;60079.13;;;-145.46;68.78
76478;BME280;65309;49.790;18.972;2024-02-14T09:54:39;60066.50;;;-145.46;66.85
76478;BME280;65309;49.790;18.972;2024-02-14T09:59:43;60028.66;;;-145.46;67.32
76478;BME280;65309;49.790;18.972;2024-02-14T10:04:46;60074.91;;;-145.46;68.88
76478;BME280;65309;49.790;18.972;2024-02-14T10:09:49;60070.72;;;-145.46;65.94
76478;BME280;65309;49.790;18.972;2024-02-14T10:14:52;60074.91;;;-145.46;64.74
76478;BME280;65309;49.790;18.972;2024-02-14T10:19:56;60116.97;;;-145.46;63.44
76478;BME280;65309;49.790;18.972;2024-02-14T10:24:58;60058.09;;;-145.46;64.69
76478;BME280;65309;49.790;18.972;2024-02-14T10:30:01;60095.94;;;-145.46;63.63
76478;BME280;65309;49.790;18.972;2024-02-14T10:35:04;60022.34;;;-145.46;61.69
76478;BME280;65309;49.790;18.972;2024-02-14T10:40:11;60066.50;;;-145.46;59.38
76478;BME280;65309;49.790;18.972;2024-02-14T10:45:14;60049.69;;;-145.46;58.73
76478;BME280;65309;49.790;18.972;2024-02-14T10:50:17;60034.97;;;-145.46;59.62
76478;BME280;65309;49.790;18.972;2024-02-14T10:55:24;60041.28;;;-145.46;59.44
76478;BME280;65309;49.790;18.972;2024-02-14T11:00:30;60051.78;;;-145.46;58.66
76478;BME280;65309;49.790;18.972;2024-02-14T11:05:43;60095.94;;;-145.46;55.16
76478;BME280;65309;49.790;18.972;2024-02-14T11:10:53;60037.06;;;-145.46;55.82
76478;BME280;65309;49.790;18.972;2024-02-14T11:15:57;60011.84;;;-145.46;55.88
76478;BME280;65309;49.790;18.972;2024-02-14T11:21:03;60074.91;;;-145.46;55.06
76478;BME280;65309;49.790;18.972;2024-02-14T11:26:06;60049.69;;;-145.46;57.13
76478;BME280;65309;49.790;18.972;2024-02-14T11:31:16;60060.19;;;-145.46;55.24
76478;BME280;65309;49.790;18.972;2024-02-14T11:36:18;60037.06;;;-145.46;55.81
76478;BME280;65309;49.790;18.972;2024-02-14T11:41:21;60043.38;;;-145.46;54.88
76478;BME280;65309;49.790;18.972;2024-02-14T11:46:24;60009.75;;;-145.46;54.05
76478;BME280;65309;49.790;18.972;2024-02-14T11:51:32;60037.06;;;-145.46;53.96
76478;BME280;65309;49.790;18.972;2024-02-14T11:56:36;60037.06;;;-145.46;54.53
76478;BME280;65309;49.790;18.972;2024-02-14T12:01:40;60020.25;;;-145.46;54.43
76478;BME280;65309;49.790;18.972;2024-02-14T12:06:43;60049.69;;;-145.46;52.81
76478;BME280;65309;49.790;18.972;2024-02-14T12:11:46;60053.91;;;-145.46;54.70
76478;BME280;65309;49.790;18.972;2024-02-14T12:16:50;60045.47;;;-145.46;55.80
76478;BME280;65309;49.790;18.972;2024-02-14T12:21:52;60060.19;;;-145.46;56.08
76478;BME280;65309;49.790;18.972;2024-02-14T12:26:54;60043.38;;;-145.46;56.61
76478;BME280;65309;49.790;18.972;2024-02-14T12:32:05;60083.31;;;-145.46;58.66
76478;BME280;65309;49.790;18.972;2024-02-14T12:37:07;60077.00;;;-145.46;59.02
76478;BME280;65309;49.790;18.972;2024-02-14T12:42:11;60058.09;;;-145.46;57.70
76478;BME280;65309;49.790;18.972;2024-02-14T12:47:15;60039.19;;;-145.46;58.15
76478;BME280;65309;49.790;18.972;2024-02-14T12:52:17;60032.88;;;-145.46;57.84
76478;BME280;65309;49.790;18.972;2024-02-14T12:57:19;60037.06;;;-145.46;59.33
76478;BME280;65309;49.790;18.972;2024-02-14T13:02:25;60020.25;;;-145.46;57.88
76478;BME280;65309;49.790;18.972;2024-02-14T13:07:28;60034.97;;;-145.46;59.64
76478;BME280;65309;49.790;18.972;2024-02-14T13:12:30;60028.66;;;-145.46;58.97
76478;BME280;65309;49.790;18.972;2024-02-14T13:17:34;60028.66;;;-145.46;59.76
76478;BME280;65309;49.790;18.972;2024-02-14T13:22:37;60028.66;;;-145.46;60.57
76478;BME280;65309;49.790;18.972;2024-02-14T13:27:39;60070.72;;;-145.46;61.00
76478;BME280;65309;49.790;18.972;2024-02-14T13:32:42;60079.13;;;-145.46;62.32
76478;BME280;65309;49.790;18.972;2024-02-14T13:37:45;60043.38;;;-145.46;62.62
76478;BME280;65309;49.790;18.972;2024-02-14T13:42:47;60032.88;;;-145.46;64.21
76478;BME280;65309;49.790;18.972;2024-02-14T13:47:50;60058.09;;;-145.46;62.25
76478;BME280;65309;49.790;18.972;2024-02-14T13:52:53;60005.53;;;-145.46;63.25
76478;BME280;65309;49.790;18.972;2024-02-14T13:57:56;60070.72;;;-145.46;62.64
76478;BME280;65309;49.790;18.972;2024-02-14T14:02:59;60083.31;;;-145.46;62.94
76478;BME280;65309;49.790;18.972;2024-02-14T14:08:01;60039.19;;;-145.46;64.25
76478;BME280;65309;49.790;18.972;2024-02-14T14:13:04;60079.13;;;-145.46;63.88
76478;BME280;65309;49.790;18.972;2024-02-14T14:18:07;60060.19;;;-145.46;64.89
76478;BME280;65309;49.790;18.972;2024-02-14T14:23:10;60093.84;;;-145.46;64.72
76478;BME280;65309;49.790;18.972;2024-02-14T14:28:12;60066.50;;;-145.46;65.64
76478;BME280;65309;49.790;18.972;2024-02-14T14:33:17;60074.91;;;-145.46;65.85
76478;BME280;65309;49.790;18.972;2024-02-14T14:38:21;60077.00;;;-145.46;65.62
76478;BME280;65309;49.790;18.972;2024-02-14T14:43:23;60037.06;;;-145.46;65.86
76478;BME280;65309;49.790;18.972;2024-02-14T14:48:26;60037.06;;;-145.46;67.09
76478;BME280;65309;49.790;18.972;2024-02-14T14:53:29;60041.28;;;-145.46;67.25
76478;BME280;65309;49.790;18.972;2024-02-14T14:58:32;60077.00;;;-145.46;67.58
76478;BME280;65309;49.790;18.972;2024-02-14T15:03:38;60062.31;;;-145.46;68.40
76478;BME280;65309;49.790;18.972;2024-02-14T15:08:40;60091.72;;;-145.46;69.90
76478;BME280;65309;49.790;18.972;2024-02-14T15:13:42;60060.19;;;-145.46;69.96
76478;BME280;65309;49.790;18.972;2024-02-14T15:18:47;60100.13;;;-145.46;69.68
76478;BME280;65309;49.790;18.972;2024-02-14T15:23:50;60060.19;;;-145.46;69.56
76478;BME280;65309;49.790;18.972;2024-02-14T15:28:52;60079.13;;;-145.46;70.78
76478;BME280;65309;49.790;18.972;2024-02-14T15:34:19;60091.72;;;-145.46;70.78
76478;BME280;65309;49.790;18.972;2024-02-14T15:39:21;60045.47;;;-145.46;70.82
76478;BME280;65309;49.790;18.972;2024-02-14T15:44:23;60100.13;;;-145.46;71.06
76478;BME280;65309;49.790;18.972;2024-02-14T15:49:27;60053.91;;;-145.46;70.30
76478;BME280;65309;49.790;18.972;2024-02-14T15:54:33;60049.69;;;-145.46;72.16
76478;BME280;65309;49.790;18.972;2024-02-14T15:59:35;60102.25;;;-145.46;74.26
76478;BME280;65309;49.790;18.972;2024-02-14T16:04:38;60049.69;;;-145.46;76.90
76478;BME280;65309;49.790;18.972;2024-02-14T16:09:41;60129.56;;;-145.46;81.10
76478;BME280;65309;49.790;18.972;2024-02-14T16:14:43;60112.75;;;-145.46;80.60
76478;BME280;65309;49.790;18.972;2024-02-14T16:19:47;60081.22;;;-145.46;79.81
76478;BME280;65309;49.790;18.972;2024-02-14T16:24:49;60074.91;;;-145.46;79.19
76478;BME280;65309;49.790;18.972;2024-02-14T16:29:53;60121.16;;;-145.46;77.70
76478;BME280;65309;49.790;18.972;2024-02-14T16:34:57;60077.00;;;-145.46;77.30
76478;BME280;65309;49.790;18.972;2024-02-14T16:39:59;60062.31;;;-145.46;77.14
76478;BME280;65309;49.790;18.972;2024-02-14T16:45:03;60085.44;;;-145.46;76.39
76478;BME280;65309;49.790;18.972;2024-02-14T16:50:08;60083.31;;;-145.46;75.15
76478;BME280;65309;49.790;18.972;2024-02-14T16:55:10;60098.03;;;-145.46;75.82
76478;BME280;65309;49.790;18.972;2024-02-14T17:00:13;60041.28;;;-145.46;75.08
76478;BME280;65309;49.790;18.972;2024-02-14T17:05:17;60100.13;;;-145.46;75.27
76478;BME280;65309;49.790;18.972;2024-02-14T17:10:19;60074.91;;;-145.46;74.38
76478;BME280;65309;49.790;18.972;2024-02-14T17:15:21;60100.13;;;-145.46;73.73
76478;BME280;65309;49.790;18.972;2024-02-14T17:20:25;60091.72;;;-145.46;74.07
76478;BME280;65309;49.790;18.972;2024-02-14T17:25:27;60074.91;;;-145.46;73.30
76478;BME280;65309;49.790;18.972;2024-02-14T17:30:29;60104.34;;;-145.46;72.06
76478;BME280;65309;49.790;18.972;2024-02-14T17:35:33;60062.31;;;-145.46;72.23
76478;BME280;65309;49.790;18.972;2024-02-14T17:40:36;60098.03;;;-145.46;71.99
76478;BME280;65309;49.790;18.972;2024-02-14T17:45:38;60062.31;;;-145.46;72.39
76478;BME280;65309;49.790;18.972;2024-02-14T17:50:42;60074.91;;;-145.46;73.34
76478;BME280;65309;49.790;18.972;2024-02-14T17:55:45;60077.00;;;-145.46;73.26
76478;BME280;65309;49.790;18.972;2024-02-14T18:00:51;60095.94;;;-145.46;72.83
76478;BME280;65309;49.790;18.972;2024-02-14T18:05:54;60051.78;;;-145.46;73.14
76478;BME280;65309;49.790;18.972;2024-02-14T18:10:57;60058.09;;;-145.46;73.42
76478;BME280;65309;49.790;18.972;2024-02-14T18:15:59;60079.13;;;-145.46;73.89
76478;BME280;65309;49.790;18.972;2024-02-14T18:21:03;60049.69;;;-145.46;74.05
76478;BME280;65309;49.790;18.972;2024-02-14T18:26:06;60083.31;;;-145.46;73.76
76478;BME280;65309;49.790;18.972;2024-02-14T18:31:10;60083.31;;;-145.46;74.28
76478;BME280;65309;49.790;18.972;2024-02-14T18:36:16;60070.72;;;-145.46;74.42
76478;BME280;65309;49.790;18.972;2024-02-14T18:41:20;60062.31;;;-145.46;74.66
76478;BME280;65309;49.790;18.972;2024-02-14T18:46:22;60085.44;;;-145.46;74.61
76478;BME280;65309;49.790;18.972;2024-02-14T18:51:27;60112.75;;;-145.46;75.15
76478;BME280;65309;49.790;18.972;2024-02-14T18:56:29;60095.94;;;-145.46;76.83
76478;BME280;65309;49.790;18.972;2024-02-14T19:01:31;60112.75;;;-145.46;77.45
76478;BME280;65309;49.790;18.972;2024-02-14T19:06:35;60112.75;;;-145.46;77.81
76478;BME280;65309;49.790;18.972;2024-02-14T19:11:40;60066.50;;;-145.46;78.44
76478;BME280;65309;49.790;18.972;2024-02-14T19:16:42;60053.91;;;-145.46;78.10
76478;BME280;65309;49.790;18.972;2024-02-14T19:21:47;60051.78;;;-145.46;77.35
76478;BME280;65309;49.790;18.972;2024-02-14T19:26:49;60070.72;;;-145.46;76.81
76478;BME280;65309;49.790;18.972;2024-02-14T19:31:51;60062.31;;;-145.46;75.89
76478;BME280;65309;49.790;18.972;2024-02-14T19:36:55;60049.69;;;-145.46;75.21
76478;BME280;65309;49.790;18.972;2024-02-14T19:41:57;60060.19;;;-145.46;75.59
76478;BME280;65309;49.790;18.972;2024-02-14T19:46:59;60041.28;;;-145.46;75.33
76478;BME280;65309;49.790;18.972;2024-02-14T19:52:04;60026.56;;;-145.46;75.79
76478;BME280;65309;49.790;18.972;2024-02-14T19:57:06;60062.31;;;-145.46;75.41
76478;BME280;65309;49.790;18.972;2024-02-14T20:02:08;60091.72;;;-145.46;75.12
76478;BME280;65309;49.790;18.972;2024-02-14T20:07:12;60079.13;;;-145.46;75.51
76478;BME280;65309;49.790;18.972;2024-02-14T20:12:14;60053.91;;;-145.46;75.34
76478;BME280;65309;49.790;18.972;2024-02-14T20:17:17;60081.22;;;-145.46;75.75
76478;BME280;65309;49.790;18.972;2024-02-14T20:22:20;60106.44;;;-145.46;76.42
76478;BME280;65309;49.790;18.972;2024-02-14T20:27:23;60106.44;;;-145.46;76.58
76478;BME280;65309;49.790;18.972;2024-02-14T20:32:26;60079.13;;;-145.46;76.81
76478;BME280;65309;49.790;18.972;2024-02-14T20:37:30;60091.72;;;-145.46;76.61
76478;BME280;65309;49.790;18.972;2024-02-14T20:42:32;60058.09;;;-145.46;77.00
76478;BME280;65309;49.790;18.972;2024-02-14T20:47:34;60028.66;;;-145.46;77.53
76478;BME280;65309;49.790;18.972;2024-02-14T20:52:38;60110.66;;;-145.46;78.14
76478;BME280;65309;49.790;18.972;2024-02-14T20:57:40;60079.13;;;-145.46;77.79
76478;BME280;65309;49.790;18.972;2024-02-14T21:02:43;60062.31;;;-145.46;78.19
76478;BME280;65309;49.790;18.972;2024-02-14T21:07:46;60121.16;;;-145.46;78.21
76478;BME280;65309;49.790;18.972;2024-02-14T21:12:49;60062.31;;;-145.46;77.92
76478;BME280;65309;49.790;18.972;2024-02-14T21:17:51;60070.72;;;-145.46;78.36
76478;BME280;65309;49.790;18.972;2024-02-14T21:22:55;60091.72;;;-145.46;78.42
76478;BME280;65309;49.790;18.972;2024-02-14T21:27:58;60032.88;;;-145.46;78.74
76478;BME280;65309;49.790;18.972;2024-02-14T21:33:00;60077.00;;;-145.46;79.07
76478;BME280;65309;49.790;18.972;2024-02-14T21:38:04;60087.53;;;-145.46;78.28
76478;BME280;65309;49.790;18.972;2024-02-14T21:43:07;60081.22;;;-145.46;79.45
76478;BME280;65309;49.790;18.972;2024-02-14T21:48:09;60116.97;;;-145.46;79.71
76478;BME280;65309;49.790;18.972;2024-02-14T21:53:13;60087.53;;;-145.46;80.08
76478;BME280;65309;49.790;18.972;2024-02-14T21:58:15;60074.91;;;-145.46;79.75
76478;BME280;65309;49.790;18.972;2024-02-14T22:03:17;60062.31;;;-145.46;79.69
76478;BME280;65309;49.790;18.972;2024-02-14T22:08:21;60053.91;;;-145.46;79.17
76478;BME280;65309;49.790;18.972;2024-02-14T22:13:25;60066.50;;;-145.46;79.14
76478;BME280;65309;49.790;18.972;2024-02-14T22:18:27;60095.94;;;-145.46;79.74
76478;BME280;65309;49.790;18.972;2024-02-14T22:23:31;60066.50;;;-145.46;78.70
76478;BME280;65309;49.790;18.972;2024-02-14T22:28:34;60074.91;;;-145.46;78.83
76478;BME280;65309;49.790;18.972;2024-02-14T22:33:37;60087.53;;;-145.46;78.70
76478;BME280;65309;49.790;18.972;2024-02-14T22:38:40;60091.72;;;-145.46;78.35
76478;BME280;65309;49.790;18.972;2024-02-14T22:43:43;60041.28;;;-145.46;78.19
76478;BME280;65309;49.790;18.972;2024-02-14T22:48:47;60095.94;;;-145.46;78.38
76478;BME280;65309;49.790;18.972;2024-02-14T22:53:51;60123.25;;;-145.46;78.47
76478;BME280;65309;49.790;18.972;2024-02-14T22:58:53;60087.53;;;-145.46;78.14
76478;BME280;65309;49.790;18.972;2024-02-14T23:03:55;60085.44;;;-145.46;77.93
76478;BME280;65309;49.790;18.972;2024-02-14T23:08:59;60070.72;;;-145.46;78.36
76478;BME280;65309;49.790;18.972;2024-02-14T23:14:01;60060.19;;;-145.46;78.04
76478;BME280;65309;49.790;18.972;2024-02-14T23:19:03;60074.91;;;-145.46;78.91
76478;BME280;65309;49.790;18.972;2024-02-14T23:24:07;60039.19;;;-145.46;79.06
76478;BME280;65309;49.790;18.972;2024-02-14T23:29:10;60091.72;;;-145.46;78.98
76478;BME280;65309;49.790;18.972;2024-02-14T23:34:15;60066.50;;;-145.46;79.58
76478;BME280;65309;49.790;18.972;2024-02-14T23:39:19;60079.13;;;-145.46;80.11
76478;BME280;65309;49.790;18.972;2024-02-14T23:44:21;60047.59;;;-145.46;79.85
76478;BME280;65309;49.790;18.972;2024-02-14T23:49:25;60116.97;;;-145.46;80.13
76478;BME280;65309;49.790;18.972;2024-02-14T23:54:28;60070.72;;;-145.46;81.72
76478;BME280;65309;49.790;18.972;2024-02-14T23:59:31;60072.81;;;-145.46;81.77
